LIBP Airport Information

Runway Information
Runway 04 Length 7933 ft width 148 ft
Elevation 46 ft Threshold 344 ft Heading 38
Runway 22 Length 7933 ft Width 148 ft
Elevation 27 ft Threshold 617 ft Heading 218
Airport Frequencies
Type APP Name APP Frequency 120.05 MHZ
Type TWR Name TWR Frequency 118.45 MHZ
Airport Navaids
Type VOR-DME Name Pescara Frequency 115900 KHZ
Airport Weather Information & NOTAM
ADDS - METARS form results

(2132 UTC 17 December 2017)
 
METAR text: LIBP 172050Z 28005KT 240V310 9999 SCT050 06/02 Q1021
Conditions at: LIBP (PESCARA , IT) observed 2050 UTC 17 December 2017
Temperature: 6.0°C (43°F)
Dewpoint: 2.0°C (36°F) [RH = 75%]
Pressure (altimeter): 30.15 inches Hg (1021.0 mb)
Winds: from the W (280 degrees) at 6 MPH (5 knots; 2.6 m/s)
Visibility: 6 or more miles (10+ km)
Ceiling: at least 12,000 feet AGL
Clouds: scattered clouds at 5000 feet AGL
Weather: no significant weather observed at this time